Time;durP1;ratioP1;P1;durP2;ratioP2;P2;SDS_P1;SDS_P2;PMS_P1;PMS_P2;Temp;Humidity;BMP_temperature;BMP_pressure;BME280_temperature;BME280_humidity;BME280_pressure;Samples;Min_cycle;Max_cycle;Signal;HPM_P1;HPM_P2
2022/08/20 00:01:28;;;;;;;76.82;42.50;;;;;;;17.20;100.00;96370.88;10535024;28;20717;-74
2022/08/20 00:06:28;;;;;;;74.45;41.97;;;;;;;17.19;100.00;96369.25;10533010;28;20528;-76
2022/08/20 00:11:32;;;;;;;81.78;41.97;;;;;;;17.16;100.00;96369.66;10533402;28;20563;-76
2022/08/20 00:16:35;;;;;;;77.43;43.72;;;;;;;17.12;100.00;96363.97;10534017;28;20183;-75
2022/08/20 00:21:36;;;;;;;83.85;44.38;;;;;;;17.03;100.00;96360.72;10533427;28;20202;-75
2022/08/20 00:26:36;;;;;;;74.65;42.30;;;;;;;17.08;100.00;96374.13;10539376;28;20218;-76
2022/08/20 00:31:37;;;;;;;79.90;42.97;;;;;;;17.03;100.00;96371.31;10541545;28;20218;-76
2022/08/20 00:36:37;;;;;;;77.57;41.90;;;;;;;17.02;100.00;96372.31;10541325;28;20222;-75
2022/08/20 00:41:37;;;;;;;69.68;39.70;;;;;;;17.01;100.00;96372.50;10541779;28;20194;-76
2022/08/20 00:46:39;;;;;;;69.07;38.08;;;;;;;17.04;100.00;96361.53;10541321;28;20362;-76
2022/08/20 00:52:05;;;;;;;76.20;44.28;;;;;;;16.98;100.00;96370.28;10541180;28;20219;-76
2022/08/20 00:57:11;;;;;;;72.85;41.65;;;;;;;16.89;100.00;96370.50;10508839;28;20309;-76
2022/08/20 01:02:14;;;;;;;73.22;44.35;;;;;;;16.91;100.00;96362.38;10521646;28;20742;-76
2022/08/20 01:07:14;;;;;;;78.53;43.50;;;;;;;16.98;100.00;96365.78;10522073;28;20616;-76
2022/08/20 01:12:15;;;;;;;78.18;43.58;;;;;;;17.00;100.00;96363.78;10540236;28;20218;-76
2022/08/20 01:17:20;;;;;;;79.97;45.70;;;;;;;16.77;100.00;96366.81;10518781;28;20628;-75
2022/08/20 01:27:58;;;;;;;79.00;45.38;;;;;;;16.85;100.00;96384.31;10522290;28;20190;-75
2022/08/20 01:32:59;;;;;;;76.28;43.65;;;;;;;16.89;100.00;96377.59;10520415;28;20214;-76
2022/08/20 01:37:59;;;;;;;78.18;42.78;;;;;;;16.69;100.00;96380.22;10519748;28;20203;-76
2022/08/20 01:42:59;;;;;;;77.10;45.15;;;;;;;16.80;100.00;96376.16;10520850;28;20261;-75
2022/08/20 01:48:00;;;;;;;78.68;44.17;;;;;;;16.67;100.00;96384.91;10521113;28;20191;-75
2022/08/20 01:53:07;;;;;;;79.40;44.53;;;;;;;16.63;100.00;96384.53;10538439;28;20238;-75
2022/08/20 01:58:07;;;;;;;75.45;42.75;;;;;;;16.65;100.00;96382.47;10503780;28;20264;-75
2022/08/20 02:03:08;;;;;;;80.60;45.83;;;;;;;16.54;100.00;96380.44;10520570;28;20244;-76
2022/08/20 02:08:08;;;;;;;80.85;44.25;;;;;;;16.57;100.00;96393.28;10537999;28;20190;-76
2022/08/20 02:13:09;;;;;;;81.82;43.47;;;;;;;16.58;100.00;96387.78;10537942;28;20305;-76
2022/08/20 02:18:13;;;;;;;86.15;46.88;;;;;;;16.52;100.00;96390.41;10537758;28;20203;-76
2022/08/20 02:23:15;;;;;;;95.65;47.00;;;;;;;16.44;100.00;96383.47;10537432;28;20186;-75
2022/08/20 02:28:18;;;;;;;89.68;45.88;;;;;;;16.45;100.00;96386.91;10537190;28;20299;-76
2022/08/20 02:33:20;;;;;;;114.40;51.83;;;;;;;16.34;100.00;96391.81;10536963;28;20333;-76
2022/08/20 02:38:20;;;;;;;109.03;51.53;;;;;;;16.36;100.00;96392.41;10536635;28;20248;-76
2022/08/20 02:43:21;;;;;;;107.82;49.95;;;;;;;16.34;100.00;96389.16;10518422;28;20207;-76
2022/08/20 02:48:22;;;;;;;93.95;46.85;;;;;;;16.40;100.00;96376.94;10531419;28;20186;-76
2022/08/20 02:53:24;;;;;;;99.20;50.40;;;;;;;16.38;100.00;96369.22;10534537;28;20319;-75
2022/08/20 02:58:24;;;;;;;109.28;49.17;;;;;;;16.38;100.00;96373.69;10536241;28;20195;-76
2022/08/20 03:03:25;;;;;;;117.72;51.95;;;;;;;16.36;100.00;96371.25;10520784;28;20191;-76
2022/08/20 03:08:28;;;;;;;113.88;52.55;;;;;;;16.31;100.00;96371.06;10489573;28;20191;-76
2022/08/20 03:13:28;;;;;;;122.70;56.17;;;;;;;16.32;100.00;96377.97;10489848;28;20250;-76
2022/08/20 03:18:35;;;;;;;136.38;56.17;;;;;;;16.25;100.00;96377.16;10489462;28;20196;-75
2022/08/20 03:23:36;;;;;;;130.88;59.22;;;;;;;16.35;100.00;96377.56;10489482;28;20719;-76
2022/08/20 03:28:37;;;;;;;165.75;65.65;;;;;;;16.11;100.00;96378.94;10488775;28;20312;-75
2022/08/20 03:33:38;;;;;;;154.45;61.88;;;;;;;16.15;100.00;96377.53;10488881;28;20194;-76
2022/08/20 03:38:38;;;;;;;147.23;58.97;;;;;;;16.10;100.00;96381.78;10489360;28;20244;-76
2022/08/20 03:43:40;;;;;;;123.50;51.25;;;;;;;16.18;100.00;96392.16;10489506;28;20195;-76
2022/08/20 03:48:40;;;;;;;110.85;49.67;;;;;;;16.19;100.00;96401.75;10488759;28;20199;-76
2022/08/20 03:53:41;;;;;;;103.30;47.70;;;;;;;16.12;100.00;96403.53;10488407;28;21013;-76
2022/08/20 03:58:41;;;;;;;96.68;44.20;;;;;;;16.09;100.00;96404.75;10488632;28;20603;-77
2022/08/20 04:03:42;;;;;;;86.25;40.58;;;;;;;16.13;100.00;96407.81;10472946;28;20187;-76
2022/08/20 04:08:42;;;;;;;85.18;37.17;;;;;;;16.13;100.00;96408.63;10492096;28;20198;-76
2022/08/20 04:13:42;;;;;;;62.22;31.52;;;;;;;16.19;100.00;96415.75;10492281;28;20195;-76
2022/08/20 04:18:43;;;;;;;62.50;31.23;;;;;;;16.12;100.00;96409.63;10491939;28;20187;-76
2022/08/20 04:23:43;;;;;;;55.53;28.60;;;;;;;16.09;100.00;96396.00;10491824;28;20287;-76
2022/08/20 04:28:43;;;;;;;52.20;30.48;;;;;;;16.15;100.00;96411.06;10473620;28;20199;-76
2022/08/20 04:33:44;;;;;;;40.08;25.40;;;;;;;16.28;100.00;96402.34;10491778;28;20293;-76
2022/08/20 04:38:44;;;;;;;31.23;20.95;;;;;;;16.24;100.00;96415.16;10491387;28;20191;-76
2022/08/20 04:43:45;;;;;;;27.13;17.40;;;;;;;16.32;100.00;96406.22;10491968;28;20188;-76
2022/08/20 04:48:45;;;;;;;21.00;15.00;;;;;;;16.23;100.00;96402.94;10473136;28;20286;-76
2022/08/20 04:53:46;;;;;;;18.67;13.50;;;;;;;16.28;100.00;96410.28;10491095;28;20230;-76
2022/08/20 04:58:47;;;;;;;18.02;11.85;;;;;;;16.15;100.00;96409.22;10491526;28;20354;-76
2022/08/20 05:03:48;;;;;;;12.30;9.02;;;;;;;16.21;100.00;96420.84;10490879;28;20187;-76
2022/08/20 05:08:49;;;;;;;11.73;8.50;;;;;;;16.22;100.00;96415.34;10491214;28;20191;-75
2022/08/20 05:13:51;;;;;;;8.98;7.05;;;;;;;16.22;100.00;96418.00;10478396;28;20214;-76
2022/08/20 05:18:51;;;;;;;13.18;6.57;;;;;;;16.24;100.00;96425.72;10498390;28;20219;-75
2022/08/20 05:23:52;;;;;;;7.53;6.72;;;;;;;16.17;100.00;96423.09;10526902;28;20647;-76
2022/08/20 05:28:52;;;;;;;6.82;5.80;;;;;;;16.11;100.00;96426.53;10537477;28;20530;-75
2022/08/20 05:33:55;;;;;;;6.70;5.57;;;;;;;16.13;100.00;96421.84;10538050;28;20618;-75
2022/08/20 05:38:55;;;;;;;5.15;4.65;;;;;;;16.21;100.00;96436.72;10537338;28;20190;-76
2022/08/20 05:43:59;;;;;;;4.78;4.10;;;;;;;16.00;100.00;96435.84;10537600;28;20270;-75
2022/08/20 05:49:00;;;;;;;5.13;4.20;;;;;;;15.95;100.00;96442.72;10536899;28;20236;-76
2022/08/20 05:54:00;;;;;;;6.70;4.90;;;;;;;15.97;100.00;96449.44;10537117;28;20736;-76
2022/08/20 05:59:03;;;;;;;9.38;5.95;;;;;;;15.93;100.00;96450.84;10536770;28;20202;-76
2022/08/20 06:09:25;;;;;;;8.90;7.57;;;;;;;15.67;100.00;96457.59;10535587;28;20214;-76
2022/08/20 06:14:25;;;;;;;10.98;8.80;;;;;;;15.42;100.00;96457.25;10536835;28;20187;-76
2022/08/20 06:19:25;;;;;;;16.52;9.60;;;;;;;15.33;100.00;96463.69;10536900;28;20194;-75
2022/08/20 06:24:26;;;;;;;14.63;11.23;;;;;;;15.24;100.00;96468.28;10536308;28;20194;-76
2022/08/20 06:29:27;;;;;;;22.80;14.25;;;;;;;15.26;100.00;96492.66;10535360;28;20309;-75
2022/08/20 06:34:27;;;;;;;23.92;15.43;;;;;;;15.24;100.00;96494.66;10535262;28;20213;-76
2022/08/20 06:39:29;;;;;;;25.50;18.02;;;;;;;15.17;100.00;96496.44;10536204;28;20223;-75
2022/08/20 06:44:30;;;;;;;30.23;20.58;;;;;;;15.26;100.00;96507.69;10516336;28;20662;-75
2022/08/20 06:49:34;;;;;;;28.48;19.13;;;;;;;15.11;100.00;96502.47;10534995;28;20215;-75
2022/08/20 06:54:35;;;;;;;31.33;20.63;;;;;;;15.12;100.00;96509.38;10516954;28;20234;-75
2022/08/20 06:59:35;;;;;;;29.23;20.45;;;;;;;15.16;100.00;96502.72;10533394;28;20267;-75
2022/08/20 07:04:36;;;;;;;28.75;19.77;;;;;;;15.09;100.00;96507.13;10534832;28;20191;-76
2022/08/20 07:09:36;;;;;;;27.35;19.95;;;;;;;15.09;100.00;96501.84;10534758;28;20218;-75
2022/08/20 07:14:36;;;;;;;23.08;16.40;;;;;;;15.08;100.00;96501.03;10530381;28;20397;-75
2022/08/20 07:19:37;;;;;;;23.88;16.65;;;;;;;15.08;100.00;96495.75;10543945;28;20202;-75
2022/08/20 07:25:47;;;;;;;27.48;19.80;;;;;;;15.07;100.00;96504.69;10539705;28;20195;-76
2022/08/20 07:36:09;;;;;;;33.88;20.13;;;;;;;15.14;100.00;96505.56;10534411;28;20635;-76
2022/08/20 07:41:12;;;;;;;26.90;19.33;;;;;;;15.23;100.00;96523.88;10535198;28;20191;-76
2022/08/20 07:46:17;;;;;;;26.60;18.75;;;;;;;15.12;100.00;96512.84;10535229;28;20182;-74
2022/08/20 07:51:19;;;;;;;27.13;18.90;;;;;;;15.26;100.00;96519.03;10534915;28;20576;-76
2022/08/20 07:56:25;;;;;;;23.55;16.67;;;;;;;15.20;100.00;96511.88;10517094;28;20226;-76
2022/08/20 08:01:29;;;;;;;20.23;15.13;;;;;;;15.40;100.00;96524.44;10534747;28;20189;-77
2022/08/20 08:06:29;;;;;;;20.40;15.85;;;;;;;15.34;100.00;96534.75;10534515;28;20281;-77
2022/08/20 08:11:32;;;;;;;19.80;16.00;;;;;;;15.24;100.00;96531.63;10516189;28;20229;-77
2022/08/20 08:16:34;;;;;;;20.08;15.25;;;;;;;15.36;100.00;96542.47;10516400;28;20183;-78
2022/08/20 08:21:34;;;;;;;19.73;15.35;;;;;;;15.41;100.00;96549.81;10537346;28;20197;-78
2022/08/20 08:26:34;;;;;;;17.27;13.45;;;;;;;15.48;100.00;96548.88;10518808;28;20673;-77
2022/08/20 08:31:35;;;;;;;17.40;13.75;;;;;;;15.41;100.00;96550.63;10533602;28;20215;-78
2022/08/20 08:36:35;;;;;;;14.88;12.10;;;;;;;15.71;100.00;96542.50;10542944;28;20217;-78
2022/08/20 08:41:49;;;;;;;16.80;13.00;;;;;;;15.67;100.00;96554.50;10552822;28;20609;-77
2022/08/20 08:47:29;;;;;;;18.92;14.65;;;;;;;15.89;100.00;96551.81;10540373;28;20244;-78
2022/08/20 08:52:33;;;;;;;19.30;16.67;;;;;;;15.86;100.00;96548.56;10540348;28;20291;-75
2022/08/20 08:57:33;;;;;;;18.40;15.10;;;;;;;15.99;100.00;96550.44;10522376;28;20318;-75
2022/08/20 09:02:34;;;;;;;18.73;15.27;;;;;;;16.12;100.00;96551.53;10543250;28;20195;-74
2022/08/20 09:07:36;;;;;;;16.67;12.70;;;;;;;16.03;100.00;96551.69;10522301;28;20251;-78
2022/08/20 09:12:36;;;;;;;14.13;12.30;;;;;;;16.08;100.00;96545.84;10520651;28;20222;-77
2022/08/20 09:17:38;;;;;;;10.75;9.55;;;;;;;16.08;100.00;96547.63;10524276;28;20263;-78
2022/08/20 09:22:39;;;;;;;11.20;8.38;;;;;;;15.77;100.00;96541.75;10538346;28;20213;-76
2022/08/20 09:27:40;;;;;;;11.60;9.38;;;;;;;15.69;100.00;96526.84;10520866;28;20561;-76
2022/08/20 09:32:41;;;;;;;11.82;9.45;;;;;;;15.69;100.00;96532.13;10523120;28;20222;-76
2022/08/20 09:37:41;;;;;;;11.45;9.88;;;;;;;15.69;100.00;96545.34;10548459;28;20702;-76
2022/08/20 09:42:42;;;;;;;15.38;10.15;;;;;;;15.82;100.00;96543.84;10541791;28;20231;-76
2022/08/20 09:47:42;;;;;;;13.52;11.73;;;;;;;15.76;100.00;96540.13;10540507;28;20536;-76
2022/08/20 09:52:48;;;;;;;14.93;12.88;;;;;;;15.66;100.00;96543.09;10537830;28;20283;-76
2022/08/20 09:57:48;;;;;;;16.73;13.90;;;;;;;15.70;100.00;96546.19;10520372;28;20190;-77
2022/08/20 10:02:49;;;;;;;20.67;15.82;;;;;;;15.61;100.00;96553.41;10539348;28;20209;-74
2022/08/20 10:07:49;;;;;;;23.77;17.77;;;;;;;15.74;100.00;96557.16;10538792;28;20194;-75
2022/08/20 10:12:50;;;;;;;24.35;17.92;;;;;;;15.85;100.00;96561.97;10540815;28;20208;-76
2022/08/20 10:17:50;;;;;;;27.60;21.25;;;;;;;15.82;100.00;96563.16;10535036;28;20202;-77
2022/08/20 10:22:52;;;;;;;36.78;23.95;;;;;;;15.92;100.00;96578.66;10544469;28;20198;-75
2022/08/20 10:27:52;;;;;;;34.42;23.67;;;;;;;15.80;100.00;96574.91;10537168;28;20225;-75
2022/08/20 10:32:53;;;;;;;42.30;27.50;;;;;;;15.92;100.00;96576.00;10517601;28;20217;-75
2022/08/20 10:37:53;;;;;;;47.80;29.80;;;;;;;15.94;100.00;96584.56;10537810;28;20301;-75
2022/08/20 10:42:54;;;;;;;55.22;31.85;;;;;;;16.00;100.00;96593.53;10518578;28;20194;-76
2022/08/20 10:47:58;;;;;;;60.30;35.33;;;;;;;16.09;100.00;96591.56;10536961;28;20281;-76
2022/08/20 10:52:58;;;;;;;55.53;34.22;;;;;;;16.14;100.00;96597.06;10518851;28;20698;-76
2022/08/20 10:57:58;;;;;;;60.38;34.60;;;;;;;16.18;100.00;96591.19;10537663;28;20197;-75
2022/08/20 11:02:59;;;;;;;62.05;37.00;;;;;;;16.29;100.00;96592.47;10535777;28;20304;-75
2022/08/20 11:08:01;;;;;;;71.10;40.25;;;;;;;16.26;100.00;96597.34;10535544;28;20190;-75
2022/08/20 11:13:03;;;;;;;62.90;38.10;;;;;;;16.30;100.00;96603.88;10535566;28;20309;-74
2022/08/20 11:18:04;;;;;;;59.60;38.33;;;;;;;16.35;100.00;96606.75;10513159;28;20675;-74
2022/08/20 11:23:05;;;;;;;54.88;37.10;;;;;;;16.38;100.00;96611.66;10528186;28;20193;-74
2022/08/20 11:28:05;;;;;;;57.28;36.97;;;;;;;16.45;100.00;96611.66;10532782;28;20535;-74
2022/08/20 11:33:06;;;;;;;51.80;36.50;;;;;;;16.43;100.00;96619.00;10538277;28;20750;-75
2022/08/20 11:38:06;;;;;;;56.88;38.20;;;;;;;16.39;100.00;96627.31;10544145;28;20355;-75
2022/08/20 11:43:07;;;;;;;68.28;39.03;;;;;;;16.45;100.00;96623.09;10532517;28;20183;-74
2022/08/20 11:48:07;;;;;;;52.78;36.55;;;;;;;16.35;100.00;96612.84;10532316;28;20277;-74
2022/08/20 11:53:07;;;;;;;56.25;37.05;;;;;;;16.51;100.00;96634.72;10531790;28;20241;-74
2022/08/20 11:58:08;;;;;;;55.58;37.75;;;;;;;16.60;100.00;96636.19;10534853;28;20183;-75
2022/08/20 12:03:09;;;;;;;54.42;37.13;;;;;;;16.53;100.00;96641.41;10534186;28;20187;-75
2022/08/20 12:08:11;;;;;;;49.70;34.53;;;;;;;16.58;100.00;96639.03;10534837;28;20341;-75
2022/08/20 12:13:11;;;;;;;46.97;34.67;;;;;;;16.59;100.00;96656.50;10504646;28;20214;-76
2022/08/20 12:18:11;;;;;;;50.20;35.28;;;;;;;16.54;100.00;96653.63;10491949;28;20195;-73
2022/08/20 12:23:12;;;;;;;53.10;35.00;;;;;;;16.55;100.00;96647.34;10498581;28;20193;-73
2022/08/20 12:28:21;;;;;;;47.22;32.95;;;;;;;16.56;100.00;96646.31;10500507;28;20206;-76
2022/08/20 12:33:21;;;;;;;57.75;36.28;;;;;;;16.49;100.00;96649.94;10537822;28;20596;-76
2022/08/20 12:38:22;;;;;;;51.67;34.42;;;;;;;16.55;100.00;96660.56;10539635;28;20191;-75
2022/08/20 12:43:22;;;;;;;52.55;34.92;;;;;;;16.63;100.00;96666.69;10540339;28;20658;-76
2022/08/20 12:48:23;;;;;;;52.25;33.90;;;;;;;16.64;100.00;96663.03;10538710;28;20669;-73
2022/08/20 12:53:23;;;;;;;49.97;32.33;;;;;;;16.66;100.00;96659.19;10540030;28;20230;-74
2022/08/20 12:58:23;;;;;;;46.10;31.48;;;;;;;16.76;100.00;96656.97;10540335;28;20200;-74
2022/08/20 13:03:24;;;;;;;41.42;29.15;;;;;;;16.80;100.00;96649.50;10540662;28;20554;-73
2022/08/20 13:08:24;;;;;;;35.60;26.70;;;;;;;16.67;100.00;96647.59;10540523;28;20257;-74
2022/08/20 13:13:25;;;;;;;38.33;28.95;;;;;;;16.74;100.00;96647.63;10540410;28;20305;-74
2022/08/20 13:18:25;;;;;;;41.38;29.00;;;;;;;16.78;100.00;96648.84;10539682;28;20270;-74
2022/08/20 13:23:25;;;;;;;41.25;28.95;;;;;;;16.96;100.00;96651.00;10540122;28;20209;-74
2022/08/20 13:28:26;;;;;;;39.53;28.10;;;;;;;17.15;100.00;96657.38;10539556;28;20198;-74
2022/08/20 13:33:27;;;;;;;41.85;29.15;;;;;;;17.35;100.00;96660.06;10538608;28;20301;-73
2022/08/20 13:38:27;;;;;;;32.83;24.95;;;;;;;17.26;100.00;96648.84;10539664;28;20693;-73
2022/08/20 13:43:28;;;;;;;32.80;25.20;;;;;;;17.27;100.00;96663.72;10538168;28;20191;-74
2022/08/20 13:48:28;;;;;;;31.88;24.63;;;;;;;17.22;100.00;96652.09;10538858;28;20194;-73
2022/08/20 13:53:29;;;;;;;28.80;23.88;;;;;;;17.19;100.00;96649.84;10538559;28;20248;-73
2022/08/20 13:58:29;;;;;;;33.65;25.30;;;;;;;17.12;100.00;96644.53;10535559;28;20654;-74
2022/08/20 14:03:29;;;;;;;37.40;25.33;;;;;;;17.12;100.00;96647.19;10535812;28;20692;-74
2022/08/20 14:08:30;;;;;;;33.53;24.75;;;;;;;16.90;100.00;96651.78;10535935;28;20614;-74
2022/08/20 14:13:30;;;;;;;27.10;21.05;;;;;;;16.80;100.00;96638.06;10534749;28;20301;-74
2022/08/20 14:18:30;;;;;;;27.08;22.25;;;;;;;17.10;100.00;96630.66;10535973;28;20191;-75
2022/08/20 14:23:31;;;;;;;27.33;21.77;;;;;;;17.14;100.00;96631.09;10537903;28;20256;-75
2022/08/20 14:28:31;;;;;;;30.30;22.70;;;;;;;17.09;100.00;96637.81;10537170;28;20198;-75
2022/08/20 14:33:31;;;;;;;30.85;23.98;;;;;;;17.14;100.00;96631.09;10536967;28;20226;-75
2022/08/20 14:38:32;;;;;;;31.23;24.15;;;;;;;17.19;100.00;96628.66;10536902;28;20202;-75
2022/08/20 14:43:32;;;;;;;33.05;23.90;;;;;;;17.20;100.00;96633.75;10518082;28;20324;-75
2022/08/20 14:48:32;;;;;;;30.83;23.30;;;;;;;17.36;100.00;96624.59;10536346;28;20191;-75
2022/08/20 14:53:34;;;;;;;28.30;22.98;;;;;;;17.37;100.00;96628.91;10535513;28;20268;-75
2022/08/20 14:58:34;;;;;;;37.53;25.67;;;;;;;17.37;100.00;96617.50;10535626;28;20220;-75
2022/08/20 15:03:34;;;;;;;35.05;24.67;;;;;;;17.45;100.00;96620.75;10535199;28;20193;-75
2022/08/20 15:08:35;;;;;;;30.88;23.48;;;;;;;17.33;100.00;96619.72;10534966;28;20190;-75
2022/08/20 15:13:35;;;;;;;30.48;23.45;;;;;;;17.46;100.00;96618.94;10535124;28;20313;-75
2022/08/20 15:18:36;;;;;;;29.83;22.38;;;;;;;17.32;100.00;96615.47;10534443;28;20198;-75
2022/08/20 15:23:36;;;;;;;28.10;22.83;;;;;;;17.29;100.00;96618.50;10516762;28;20318;-75
2022/08/20 15:28:38;;;;;;;32.67;24.17;;;;;;;17.39;100.00;96623.41;10534365;28;20281;-75
2022/08/20 15:33:39;;;;;;;33.83;25.20;;;;;;;17.38;100.00;96621.75;10534661;28;20221;-74
2022/08/20 15:38:40;;;;;;;36.38;26.33;;;;;;;17.14;100.00;96625.81;10534106;28;20525;-75
2022/08/20 15:43:40;;;;;;;34.55;25.20;;;;;;;16.90;100.00;96626.13;10533352;28;20186;-75
2022/08/20 15:48:44;;;;;;;40.80;28.30;;;;;;;16.98;100.00;96638.38;10533418;28;20197;-75
2022/08/20 15:54:03;;;;;;;39.92;27.77;;;;;;;17.00;100.00;96654.03;10515167;28;20239;-75
2022/08/20 15:59:24;;;;;;;46.38;29.13;;;;;;;16.95;100.00;96649.34;10533708;28;20545;-75
2022/08/20 16:04:50;;;;;;;38.40;29.63;;;;;;;16.99;100.00;96639.19;10533686;28;20198;-75
2022/08/20 16:10:05;;;;;;;40.58;29.60;;;;;;;17.01;100.00;96645.91;10515428;28;20811;-75
2022/08/20 16:15:17;;;;;;;44.30;31.00;;;;;;;16.97;100.00;96651.78;10515795;28;20201;-75
2022/08/20 16:20:28;;;;;;;39.92;30.45;;;;;;;16.87;100.00;96649.53;10533404;28;20178;-75
2022/08/20 16:25:37;;;;;;;38.78;28.58;;;;;;;16.89;100.00;96648.34;10533085;28;20202;-75
2022/08/20 16:30:49;;;;;;;41.75;30.30;;;;;;;16.87;100.00;96650.34;10532815;28;20214;-75
2022/08/20 16:36:00;;;;;;;43.80;30.33;;;;;;;16.79;100.00;96647.84;10514699;28;20303;-75
2022/08/20 16:41:08;;;;;;;42.83;30.85;;;;;;;16.71;100.00;96658.59;10514601;28;20178;-75
2022/08/20 16:46:16;;;;;;;43.95;31.17;;;;;;;16.69;100.00;96666.75;10532346;28;20267;-75
2022/08/20 16:51:22;;;;;;;53.05;35.22;;;;;;;16.62;100.00;96673.81;10514975;28;20223;-75
2022/08/20 16:56:32;;;;;;;59.85;37.75;;;;;;;16.64;100.00;96682.38;10513950;28;20242;-75
2022/08/20 17:01:32;;;;;;;58.22;37.00;;;;;;;16.55;100.00;96687.00;10514787;28;20189;-74
2022/08/20 17:06:40;;;;;;;69.65;44.00;;;;;;;16.53;100.00;96691.66;10533187;28;20191;-75
2022/08/20 17:12:19;;;;;;;68.32;41.45;;;;;;;16.48;100.00;96706.50;10522057;28;20244;-75
2022/08/20 17:17:24;;;;;;;69.45;40.15;;;;;;;16.49;100.00;96711.59;10539715;28;20277;-75
2022/08/20 17:22:27;;;;;;;61.20;39.30;;;;;;;16.40;100.00;96716.22;10539733;28;20179;-75
2022/08/20 17:27:36;;;;;;;61.25;37.35;;;;;;;16.34;100.00;96714.34;10539891;28;20278;-76
2022/08/20 17:32:49;;;;;;;54.95;36.63;;;;;;;16.44;100.00;96721.09;10539270;28;20656;-76
2022/08/20 17:37:51;;;;;;;62.58;37.78;;;;;;;16.34;100.00;96719.63;10533883;28;20246;-76
2022/08/20 17:43:00;;;;;;;58.08;37.65;;;;;;;16.29;100.00;96716.72;10518597;28;20726;-76
2022/08/20 17:48:02;;;;;;;64.68;37.17;;;;;;;16.30;100.00;96728.13;10537275;28;20198;-76
2022/08/20 17:53:21;;;;;;;59.40;33.83;;;;;;;16.20;100.00;96728.44;10518184;28;20238;-75
2022/08/20 17:58:30;;;;;;;63.03;38.15;;;;;;;16.18;100.00;96733.94;10536530;28;20634;-75
2022/08/20 18:03:30;;;;;;;75.05;42.28;;;;;;;16.17;100.00;96737.59;10518184;28;20175;-75
2022/08/20 18:08:52;;;;;;;75.20;39.90;;;;;;;16.19;100.00;96750.63;10536497;28;20543;-75
2022/08/20 18:14:25;;;;;;;87.97;44.35;;;;;;;16.22;100.00;96753.69;10519391;28;20217;-76
2022/08/20 18:19:39;;;;;;;77.70;42.60;;;;;;;16.19;100.00;96772.56;10513579;28;20289;-75
2022/08/20 18:25:06;;;;;;;73.63;41.45;;;;;;;16.18;100.00;96767.47;10522334;28;20248;-76
2022/08/20 18:30:16;;;;;;;71.75;39.92;;;;;;;16.11;100.00;96771.88;10519702;28;20207;-76
2022/08/20 18:35:33;;;;;;;73.18;40.80;;;;;;;16.14;100.00;96777.63;10537034;28;20293;-77
2022/08/20 18:40:33;;;;;;;71.22;39.30;;;;;;;16.11;100.00;96778.00;10536846;28;20183;-76
2022/08/20 18:45:35;;;;;;;73.80;39.95;;;;;;;16.12;100.00;96784.09;10536352;28;20186;-76
2022/08/20 18:50:38;;;;;;;69.22;38.95;;;;;;;16.07;100.00;96786.50;10501965;28;20280;-76
2022/08/20 18:55:47;;;;;;;63.85;36.85;;;;;;;16.03;100.00;96786.03;10536070;28;20242;-76
2022/08/20 19:00:48;;;;;;;66.28;38.63;;;;;;;16.03;100.00;96789.53;10535535;28;20210;-75
2022/08/20 19:06:25;;;;;;;62.95;39.50;;;;;;;16.14;100.00;96795.28;10535913;28;20190;-75
2022/08/20 19:11:44;;;;;;;62.88;37.80;;;;;;;16.16;100.00;96783.53;10535507;28;20223;-75
2022/08/20 19:16:48;;;;;;;60.83;37.00;;;;;;;16.21;100.00;96780.31;10535401;28;20258;-75
2022/08/20 19:21:49;;;;;;;63.55;36.33;;;;;;;16.28;100.00;96775.91;10500372;28;20187;-74
2022/08/20 19:26:56;;;;;;;54.35;35.28;;;;;;;16.19;100.00;96769.94;10517232;28;20183;-75
2022/08/20 19:31:58;;;;;;;58.03;36.28;;;;;;;16.22;100.00;96766.91;10533645;28;20210;-75
2022/08/20 19:37:05;;;;;;;59.72;36.42;;;;;;;16.23;100.00;96765.06;10534789;28;20213;-76
2022/08/20 19:42:16;;;;;;;51.25;33.88;;;;;;;16.20;100.00;96757.53;10516688;28;20588;-76
2022/08/20 19:47:24;;;;;;;54.63;34.33;;;;;;;16.19;100.00;96755.91;10534339;28;20281;-76
2022/08/20 19:52:41;;;;;;;53.35;33.28;;;;;;;16.17;100.00;96744.69;10516014;28;20215;-76
2022/08/20 19:57:49;;;;;;;59.08;35.33;;;;;;;15.95;100.00;96744.72;10516224;28;20202;-76
2022/08/20 20:02:49;;;;;;;55.53;33.63;;;;;;;16.01;100.00;96754.53;10533671;28;20193;-76
2022/08/20 20:07:52;;;;;;;61.72;35.08;;;;;;;15.93;100.00;96752.03;10515956;28;20741;-76
2022/08/20 20:12:52;;;;;;;59.55;34.95;;;;;;;15.85;100.00;96763.53;10515468;28;20226;-76
2022/08/20 20:17:53;;;;;;;61.95;35.03;;;;;;;15.86;100.00;96762.53;10532603;28;20194;-76
2022/08/20 20:22:59;;;;;;;60.67;35.67;;;;;;;15.79;100.00;96771.38;10533032;28;20195;-76
2022/08/20 20:28:21;;;;;;;54.58;34.33;;;;;;;15.74;100.00;96765.81;10532408;28;20224;-76
2022/08/20 20:33:35;;;;;;;61.70;34.42;;;;;;;15.72;100.00;96765.19;10532613;28;20561;-76
2022/08/20 20:38:38;;;;;;;58.85;34.42;;;;;;;15.72;100.00;96770.47;10532609;28;20281;-76
2022/08/20 20:43:41;;;;;;;68.10;36.45;;;;;;;15.69;100.00;96761.91;10537988;28;20654;-75
2022/08/20 20:48:45;;;;;;;59.75;35.97;;;;;;;15.71;100.00;96764.34;10522647;28;20199;-76
2022/08/20 20:53:46;;;;;;;58.70;34.47;;;;;;;15.74;100.00;96750.78;10540872;28;20234;-76
2022/08/20 20:58:47;;;;;;;63.15;34.67;;;;;;;15.69;100.00;96756.63;10539792;28;20199;-77
2022/08/20 21:03:47;;;;;;;65.40;35.20;;;;;;;15.68;100.00;96760.28;10540087;28;20195;-75
2022/08/20 21:08:48;;;;;;;86.35;39.92;;;;;;;15.53;100.00;96746.31;10540250;28;20277;-75
2022/08/20 21:13:48;;;;;;;65.60;36.85;;;;;;;15.60;100.00;96746.38;10540292;28;20704;-75
2022/08/20 21:18:48;;;;;;;68.50;36.10;;;;;;;15.60;100.00;96744.53;10538889;28;20186;-75
2022/08/20 21:23:49;;;;;;;64.80;35.25;;;;;;;15.63;100.00;96736.25;10521378;28;20328;-75
2022/08/20 21:28:49;;;;;;;59.72;34.53;;;;;;;15.66;100.00;96735.88;10538609;28;20190;-75
2022/08/20 21:33:49;;;;;;;63.25;33.72;;;;;;;15.67;100.00;96729.59;10539617;28;20221;-76
2022/08/20 21:38:50;;;;;;;59.20;32.58;;;;;;;15.64;100.00;96735.25;10539011;28;20193;-75
2022/08/20 21:43:50;;;;;;;73.50;35.15;;;;;;;15.54;100.00;96732.09;10538249;28;20190;-76
2022/08/20 21:48:50;;;;;;;60.67;33.22;;;;;;;15.60;100.00;96735.81;10537081;28;20202;-76
2022/08/20 21:53:51;;;;;;;58.83;32.70;;;;;;;15.66;100.00;96735.06;10537278;28;20746;-76
2022/08/20 21:58:51;;;;;;;56.42;31.95;;;;;;;15.64;100.00;96729.97;10520426;28;20195;-76
2022/08/20 22:03:52;;;;;;;65.22;34.58;;;;;;;15.71;100.00;96727.38;10537816;28;20271;-76
2022/08/20 22:08:52;;;;;;;80.15;41.78;;;;;;;15.78;100.00;96725.66;10538885;28;20564;-76
2022/08/20 22:13:52;;;;;;;88.97;44.05;;;;;;;15.81;100.00;96719.19;10538685;28;20218;-76
2022/08/20 22:18:53;;;;;;;92.78;45.83;;;;;;;15.89;100.00;96729.63;10538518;28;20187;-76
2022/08/20 22:23:57;;;;;;;88.07;46.90;;;;;;;15.91;100.00;96727.63;10538310;28;20267;-76
2022/08/20 22:28:57;;;;;;;79.95;45.10;;;;;;;15.92;100.00;96710.75;10538036;28;20277;-76
2022/08/20 22:33:58;;;;;;;73.78;42.88;;;;;;;15.93;100.00;96712.38;10537809;28;20319;-76
2022/08/20 22:38:59;;;;;;;69.07;40.03;;;;;;;16.01;100.00;96701.69;10537423;28;20327;-76
2022/08/20 22:43:59;;;;;;;74.85;42.30;;;;;;;15.91;100.00;96698.56;10537817;28;20320;-76
2022/08/20 22:49:00;;;;;;;80.10;42.53;;;;;;;15.89;100.00;96705.03;10537467;28;20194;-76
2022/08/20 22:54:02;;;;;;;71.15;40.45;;;;;;;15.93;100.00;96703.66;10537213;28;20239;-76
2022/08/20 22:59:03;;;;;;;69.43;39.50;;;;;;;15.95;100.00;96697.16;10519743;28;20194;-76